createdAt,value
2024-04-15T00:08:30.728Z,86.29
2024-04-15T00:18:02.674Z,86.82
2024-04-15T00:27:34.967Z,84.58
2024-04-15T00:37:10.523Z,84.68
2024-04-15T00:46:43.135Z,85.34
2024-04-15T00:56:18.864Z,86.08
2024-04-15T01:05:51.179Z,85.27
2024-04-15T01:15:27.964Z,86.14
2024-04-15T01:24:59.512Z,86.43
2024-04-15T01:34:39.465Z,85.11
2024-04-15T01:44:10.005Z,83.96
2024-04-15T01:53:42.348Z,85.26
2024-04-15T02:03:16.684Z,83.75
2024-04-15T02:13:00.964Z,87.35
2024-04-15T02:51:18.210Z,88.90
2024-04-15T03:20:03.701Z,86.99
2024-04-15T03:29:41.573Z,87.80
2024-04-15T03:39:14.312Z,89.73
2024-04-15T03:48:45.927Z,88.75
2024-04-15T03:58:21.730Z,89.71
2024-04-15T04:07:58.510Z,92.05
2024-04-15T04:17:33.210Z,94.46
2024-04-15T04:27:03.670Z,95.56
2024-04-15T04:36:37.155Z,95.52
2024-04-15T04:46:11.720Z,98.26
2024-04-15T04:55:43.021Z,99.54
2024-04-15T05:05:16.905Z,100.00
2024-04-15T05:14:50.616Z,100.00
2024-04-15T05:24:24.991Z,99.75
2024-04-15T05:34:01.222Z,100.00
2024-04-15T05:43:34.252Z,99.26
2024-04-15T05:53:08.275Z,100.00
2024-04-15T05:54:12.214Z,100.00
2024-04-15T05:55:15.013Z,100.00
2024-04-15T06:04:48.296Z,98.51
2024-04-15T06:14:22.381Z,99.78
2024-04-15T06:23:56.863Z,98.14
2024-04-15T06:33:30.925Z,97.07
2024-04-15T06:43:07.039Z,90.91
2024-04-15T06:52:38.877Z,88.79
2024-04-15T07:02:13.097Z,89.24
2024-04-15T07:11:46.835Z,84.26
2024-04-15T07:12:49.387Z,84.68
2024-04-15T07:13:51.819Z,85.08
2024-04-15T07:23:25.351Z,81.90
2024-04-15T07:32:59.671Z,76.07
2024-04-15T07:34:02.226Z,75.53
2024-04-15T07:35:06.253Z,75.78
2024-04-15T07:36:08.506Z,75.27
2024-04-15T07:37:11.058Z,76.64
2024-04-15T07:38:13.431Z,76.45
2024-04-15T07:39:15.863Z,76.83
2024-04-15T07:40:19.945Z,74.69
2024-04-15T07:41:22.229Z,74.51
2024-04-15T07:42:28.414Z,72.00
2024-04-15T07:43:27.179Z,71.70
2024-04-15T07:44:29.525Z,71.97
2024-04-15T07:45:33.638Z,71.32
2024-04-15T07:55:04.906Z,68.01
2024-04-15T07:56:07.319Z,68.24
2024-04-15T07:57:09.819Z,67.50
2024-04-15T07:58:12.306Z,68.04
2024-04-15T07:59:16.232Z,68.76
2024-04-15T08:00:18.683Z,66.83
2024-04-15T08:01:22.753Z,65.94
2024-04-15T08:02:27.688Z,65.96
2024-04-15T08:03:29.935Z,64.98
2024-04-15T08:04:34.042Z,64.33
2024-04-15T08:05:36.481Z,64.17
2024-04-15T08:06:40.481Z,63.51
2024-04-15T08:07:42.840Z,62.30
2024-04-15T08:08:45.256Z,64.19
2024-04-15T08:09:47.713Z,63.99
2024-04-15T08:10:50.211Z,63.55
2024-04-15T08:11:54.232Z,63.71
2024-04-15T08:12:59.270Z,63.25
2024-04-15T08:14:01.405Z,63.44
2024-04-15T08:15:05.382Z,62.42
2024-04-15T08:16:07.850Z,62.77
2024-04-15T08:17:11.313Z,62.87
2024-04-15T08:18:13.596Z,62.20
2024-04-15T08:19:17.611Z,61.17
2024-04-15T08:20:21.482Z,61.57
2024-04-15T08:21:23.702Z,62.88
2024-04-15T08:22:28.788Z,62.90
2024-04-15T08:23:33.645Z,62.76
2024-04-15T08:24:35.889Z,63.18
2024-04-15T08:25:38.266Z,65.01
2024-04-15T08:26:40.746Z,63.72
2024-04-15T08:27:43.159Z,64.39
2024-04-15T08:28:45.580Z,63.18
2024-04-15T08:29:48.105Z,62.97
2024-04-15T08:30:50.464Z,61.45
2024-04-15T08:31:55.359Z,62.81
2024-04-15T08:32:55.354Z,60.91
2024-04-15T08:33:59.335Z,61.74
2024-04-15T08:35:03.252Z,62.72
2024-04-15T08:36:05.483Z,64.02
2024-04-15T08:37:07.886Z,60.76
2024-04-15T08:38:10.341Z,60.64
2024-04-15T08:39:12.798Z,61.61
2024-04-15T08:40:17.308Z,61.90
2024-04-15T08:41:19.440Z,61.67
2024-04-15T08:42:23.883Z,61.84
2024-04-15T08:43:27.318Z,61.03
2024-04-15T08:44:29.557Z,61.41
2024-04-15T08:54:05.121Z,61.02
2024-04-15T08:55:07.271Z,60.28
2024-04-15T08:56:09.765Z,59.17
2024-04-15T08:57:12.621Z,59.09
2024-04-15T08:58:15.053Z,59.26
2024-04-15T08:59:19.067Z,60.21
2024-04-15T09:00:21.369Z,57.22
2024-04-15T09:01:23.813Z,55.98
2024-04-15T09:02:26.258Z,55.42
2024-04-15T09:03:28.659Z,55.62
2024-04-15T09:04:32.725Z,56.19
2024-04-15T09:05:36.588Z,56.78
2024-04-15T09:06:38.921Z,55.58
2024-04-15T09:07:42.874Z,56.81
2024-04-15T09:08:45.275Z,55.23
2024-04-15T09:09:47.654Z,57.00
2024-04-15T09:10:50.116Z,56.64
2024-04-15T09:11:54.901Z,53.90
2024-04-15T09:12:55.031Z,54.45
2024-04-15T09:13:57.464Z,54.72
2024-04-15T09:15:00.135Z,55.78
2024-04-15T09:16:02.347Z,55.53
2024-04-15T09:17:06.510Z,56.24
2024-04-15T09:18:10.490Z,56.04
2024-04-15T09:19:14.446Z,55.50
2024-04-15T09:20:20.713Z,53.07
2024-04-15T09:21:22.292Z,51.67
2024-04-15T09:22:24.735Z,50.87
2024-04-15T09:23:27.143Z,51.51
2024-04-15T09:24:29.569Z,51.12
2024-04-15T09:25:32.022Z,51.53
2024-04-15T09:26:37.333Z,50.92
2024-04-15T09:27:38.473Z,51.50
2024-04-15T09:28:40.905Z,52.31
2024-04-15T09:29:43.375Z,52.87
2024-04-15T09:30:45.845Z,53.17
2024-04-15T09:31:48.311Z,51.60
2024-04-15T09:32:51.930Z,52.38
2024-04-15T09:42:22.285Z,55.03
2024-04-15T09:43:24.753Z,54.52
2024-04-15T09:44:27.222Z,53.43
2024-04-15T09:45:29.658Z,53.52
2024-04-15T09:46:32.130Z,53.88
2024-04-15T09:47:34.629Z,54.13
2024-04-15T09:48:37.099Z,53.92
2024-04-15T09:49:39.477Z,54.55
2024-04-15T09:50:42.931Z,52.83
2024-04-15T09:51:44.408Z,52.88
2024-04-15T09:52:46.853Z,51.33
2024-04-15T09:53:49.275Z,52.93
2024-04-15T09:54:53.329Z,50.99
2024-04-15T09:55:57.220Z,51.07
2024-04-15T09:56:59.563Z,51.40
2024-04-15T09:58:03.528Z,51.79
2024-04-15T09:59:05.830Z,52.24
2024-04-15T10:00:08.314Z,52.48
2024-04-15T10:01:13.446Z,54.04
2024-04-15T10:02:17.269Z,52.71
2024-04-15T10:03:19.612Z,50.92
2024-04-15T10:04:24.699Z,52.19
2024-04-15T10:05:26.989Z,51.95
2024-04-15T10:06:29.387Z,52.47
2024-04-15T10:07:32.021Z,51.80
2024-04-15T10:08:34.426Z,51.62
2024-04-15T10:09:36.950Z,52.07
2024-04-15T10:10:39.338Z,51.96
2024-04-15T10:11:41.735Z,52.21
2024-04-15T10:12:44.218Z,52.00
2024-04-15T10:13:46.679Z,51.06
2024-04-15T10:14:49.142Z,52.18
2024-04-15T10:15:53.291Z,50.48
2024-04-15T10:16:55.626Z,50.03
2024-04-15T10:17:58.058Z,49.78
2024-04-15T10:19:00.552Z,50.18
2024-04-15T10:20:03.064Z,48.58
2024-04-15T10:21:05.471Z,48.55
2024-04-15T10:22:08.058Z,49.69
2024-04-15T10:23:10.491Z,49.50
2024-04-15T10:24:14.377Z,49.54
2024-04-15T10:25:16.729Z,49.71
2024-04-15T10:26:20.707Z,48.29
2024-04-15T10:27:23.027Z,48.28
2024-04-15T10:28:25.507Z,48.98
2024-04-15T10:29:29.599Z,49.52
2024-04-15T10:30:33.541Z,47.99
2024-04-15T10:31:35.815Z,47.98
2024-04-15T10:32:38.375Z,49.98
2024-04-15T10:33:42.333Z,46.68
2024-04-15T10:34:44.694Z,46.60
2024-04-15T10:35:47.129Z,45.74
2024-04-15T10:36:51.165Z,46.34
2024-04-15T10:37:55.118Z,46.93
2024-04-15T10:38:57.378Z,46.88
2024-04-15T10:39:59.854Z,46.18
2024-04-15T10:41:02.281Z,43.92
2024-04-15T10:42:06.373Z,43.62
2024-04-15T10:43:08.724Z,44.42
2024-04-15T10:44:11.159Z,44.06
2024-04-15T10:45:13.592Z,44.20
2024-04-15T10:46:16.074Z,43.66
2024-04-15T10:47:20.103Z,43.43
2024-04-15T10:48:22.506Z,43.07
2024-04-15T10:49:26.598Z,42.83
2024-04-15T10:50:30.400Z,42.91
2024-04-15T10:51:32.769Z,43.00
2024-04-15T10:52:35.205Z,43.55
2024-04-15T10:53:39.306Z,43.23
2024-04-15T10:54:41.659Z,43.87
2024-04-15T10:55:45.709Z,44.31
2024-04-15T10:56:48.050Z,44.10
2024-04-15T10:57:50.524Z,44.79
2024-04-15T10:58:52.963Z,44.30
2024-04-15T10:59:55.456Z,44.79
2024-04-15T11:00:59.535Z,45.73
2024-04-15T11:02:01.836Z,45.00
2024-04-15T11:03:05.915Z,45.46
2024-04-15T11:04:08.379Z,45.72
2024-04-15T11:05:12.276Z,45.73
2024-04-15T11:06:18.010Z,45.40
2024-04-15T11:07:20.276Z,45.97
2024-04-15T11:08:22.521Z,43.16
2024-04-15T11:09:25.004Z,42.58
2024-04-15T11:10:29.090Z,44.17
2024-04-15T11:11:31.390Z,41.64
2024-04-15T11:12:33.720Z,41.70
2024-04-15T11:13:36.186Z,40.40
2024-04-15T11:14:40.253Z,40.33
2024-04-15T11:15:44.194Z,40.41
2024-04-15T11:16:46.637Z,40.36
2024-04-15T11:17:48.984Z,40.12
2024-04-15T11:18:51.434Z,41.35
2024-04-15T11:19:53.885Z,41.58
2024-04-15T11:20:56.401Z,41.03
2024-04-15T11:21:59.125Z,40.17
2024-04-15T11:23:02.819Z,40.44
2024-04-15T11:24:06.765Z,39.37
2024-04-15T11:25:10.744Z,39.36
2024-04-15T11:34:40.876Z,43.79
2024-04-15T11:35:43.346Z,43.86
2024-04-15T11:36:47.514Z,43.77
2024-04-15T11:37:49.811Z,43.14
2024-04-15T11:38:52.361Z,42.82
2024-04-15T11:39:54.932Z,42.69
2024-04-15T11:40:57.526Z,43.09
2024-04-15T11:42:00.000Z,42.84
2024-04-15T11:43:02.524Z,42.73
2024-04-15T11:44:04.890Z,42.83
2024-04-15T11:45:07.400Z,42.70
2024-04-15T11:46:11.441Z,42.52
2024-04-15T11:47:13.843Z,42.79
2024-04-15T11:48:17.846Z,42.94
2024-04-15T11:49:21.743Z,41.98
2024-04-15T11:50:24.113Z,41.63
2024-04-15T11:51:26.589Z,42.01
2024-04-15T11:52:29.019Z,40.02
2024-04-15T11:53:31.466Z,40.86
2024-04-15T11:54:33.884Z,40.87
2024-04-15T11:55:36.460Z,41.85
2024-04-15T11:56:38.928Z,40.44
2024-04-15T11:57:42.884Z,40.24
2024-04-15T11:58:45.266Z,40.09
2024-04-15T11:59:49.385Z,41.18
2024-04-15T12:00:53.604Z,40.80
2024-04-15T12:01:55.666Z,41.72
2024-04-15T12:02:58.145Z,41.30
2024-04-15T12:04:00.693Z,41.55
2024-04-15T12:05:04.136Z,42.24
2024-04-15T12:06:06.527Z,41.98
2024-04-15T12:07:09.010Z,41.57
2024-04-15T12:08:13.033Z,41.50
2024-04-15T12:09:16.893Z,40.26
2024-04-15T12:10:19.272Z,40.16
2024-04-15T12:11:22.727Z,39.64
2024-04-15T12:12:24.104Z,39.69
2024-04-15T12:13:26.773Z,39.74
2024-04-15T12:14:30.985Z,40.14
2024-04-15T12:15:33.242Z,40.56
2024-04-15T12:16:35.785Z,41.17
2024-04-15T12:17:39.942Z,39.49
2024-04-15T12:18:42.207Z,39.43
2024-04-15T12:19:44.617Z,39.91
2024-04-15T12:20:47.111Z,40.69
2024-04-15T12:21:49.608Z,40.13
2024-04-15T12:22:52.038Z,40.18
2024-04-15T12:23:54.508Z,41.23
2024-04-15T12:25:01.632Z,40.60
2024-04-15T12:25:59.496Z,41.20
2024-04-15T12:27:01.912Z,41.49
2024-04-15T12:28:04.514Z,40.96
2024-04-15T12:29:06.962Z,41.06
2024-04-15T12:30:09.385Z,41.25
2024-04-15T12:31:11.870Z,41.12
2024-04-15T12:32:16.134Z,41.87
2024-04-15T12:33:18.482Z,42.08
2024-04-15T12:34:20.978Z,42.06
2024-04-15T12:35:25.026Z,41.73
2024-04-15T12:36:28.947Z,42.05
2024-04-15T12:37:31.318Z,42.51
2024-04-15T12:38:35.259Z,42.02
2024-04-15T12:39:37.563Z,41.62
2024-04-15T12:40:40.014Z,40.40
2024-04-15T12:41:42.445Z,39.94
2024-04-15T12:42:46.488Z,39.97
2024-04-15T12:43:48.824Z,39.70
2024-04-15T12:44:52.850Z,39.40
2024-04-15T12:45:55.248Z,40.03
2024-04-15T12:46:59.320Z,40.71
2024-04-15T12:48:01.666Z,40.86
2024-04-15T12:49:04.098Z,40.22
2024-04-15T12:50:08.128Z,40.28
2024-04-15T12:51:10.454Z,40.74
2024-04-15T12:52:14.608Z,41.23
2024-04-15T12:53:16.894Z,41.31
2024-04-15T12:54:19.294Z,40.72
2024-04-15T12:55:23.485Z,41.08
2024-04-15T12:56:25.723Z,41.17
2024-04-15T12:57:29.721Z,42.08
2024-04-15T12:58:32.076Z,41.10
2024-04-15T12:59:34.510Z,41.59
2024-04-15T13:00:37.046Z,40.95
2024-04-15T13:01:47.045Z,40.78
2024-04-15T13:02:43.516Z,41.09
2024-04-15T13:03:45.778Z,41.67
2024-04-15T13:04:50.044Z,42.23
2024-04-15T13:05:53.824Z,42.12
2024-04-15T13:06:56.234Z,41.63
2024-04-15T13:08:00.290Z,40.99
2024-04-15T13:09:02.646Z,40.20
2024-04-15T13:10:06.826Z,39.62
2024-04-15T13:11:08.927Z,39.53
2024-04-15T13:12:11.460Z,39.12
2024-04-15T13:13:15.540Z,38.84
2024-04-15T13:14:17.797Z,38.25
2024-04-15T13:15:20.255Z,38.51
2024-04-15T13:16:23.852Z,36.76
2024-04-15T13:17:26.119Z,36.41
2024-04-15T13:18:28.684Z,36.60
2024-04-15T13:19:31.111Z,37.07
2024-04-15T13:20:35.210Z,35.98
2024-04-15T13:21:37.556Z,36.27
2024-04-15T13:22:41.585Z,37.53
2024-04-15T13:23:43.843Z,36.92
2024-04-15T13:24:47.924Z,36.95
2024-04-15T13:25:51.882Z,36.12
2024-04-15T13:26:54.221Z,36.59
2024-04-15T13:27:56.700Z,36.04
2024-04-15T13:28:59.180Z,36.08
2024-04-15T13:30:03.336Z,35.86
2024-04-15T13:31:05.628Z,37.27
2024-04-15T13:32:14.843Z,35.72
2024-04-15T13:33:11.997Z,35.23
2024-04-15T13:34:14.477Z,34.89
2024-04-15T13:35:16.917Z,34.20
2024-04-15T13:36:19.725Z,33.57
2024-04-15T13:37:23.792Z,34.21
2024-04-15T13:38:26.057Z,34.60
2024-04-15T13:39:28.498Z,34.89
2024-04-15T13:40:30.999Z,35.55
2024-04-15T13:41:35.050Z,35.30
2024-04-15T13:42:38.979Z,34.90
2024-04-15T13:43:41.367Z,34.69
2024-04-15T13:44:45.456Z,33.95
2024-04-15T13:45:47.802Z,33.36
2024-04-15T13:46:50.399Z,32.44
2024-04-15T13:47:54.382Z,32.79
2024-04-15T13:48:57.769Z,33.51
2024-04-15T13:50:00.298Z,34.13
2024-04-15T13:51:03.603Z,34.70
2024-04-15T13:52:06.069Z,35.10
2024-04-15T13:53:09.581Z,35.04
2024-04-15T13:54:11.974Z,35.21
2024-04-15T13:55:16.053Z,34.69
2024-04-15T13:56:18.374Z,35.90
2024-04-15T13:57:20.848Z,36.49
2024-04-15T13:58:23.370Z,35.91
2024-04-15T13:59:25.768Z,35.43
2024-04-15T14:00:28.468Z,36.38
2024-04-15T14:01:30.864Z,35.86
2024-04-15T14:02:33.308Z,36.18
2024-04-15T14:03:35.791Z,37.10
2024-04-15T14:04:38.231Z,36.83
2024-04-15T14:05:40.556Z,37.84
2024-04-15T14:06:43.040Z,38.06
2024-04-15T14:07:46.597Z,37.41
2024-04-15T14:08:50.587Z,37.24
2024-04-15T14:09:53.919Z,36.91
2024-04-15T14:10:58.447Z,37.07
2024-04-15T14:12:00.957Z,36.73
2024-04-15T14:13:02.897Z,36.53
2024-04-15T14:14:05.293Z,36.70
2024-04-15T14:15:09.374Z,35.43
2024-04-15T14:16:13.542Z,35.16
2024-04-15T14:17:17.785Z,34.93
2024-04-15T14:18:19.851Z,34.92
2024-04-15T14:19:22.791Z,34.96
2024-04-15T14:20:24.667Z,34.95
2024-04-15T14:21:27.116Z,35.57
2024-04-15T14:22:32.118Z,35.60
2024-04-15T14:23:37.366Z,36.20
2024-04-15T14:24:39.605Z,36.42
2024-04-15T14:25:42.393Z,36.32
2024-04-15T14:26:44.491Z,36.63
2024-04-15T14:27:46.959Z,37.25
2024-04-15T14:28:49.393Z,36.45
2024-04-15T14:29:51.823Z,36.64
2024-04-15T14:30:55.893Z,36.72
2024-04-15T14:31:59.786Z,37.26
2024-04-15T14:33:04.781Z,37.74
2024-04-15T14:34:09.602Z,38.01
2024-04-15T14:35:13.488Z,37.95
2024-04-15T14:36:17.945Z,37.59
2024-04-15T14:37:20.790Z,37.87
2024-04-15T14:38:24.715Z,37.32
2024-04-15T14:39:26.948Z,37.50
2024-04-15T14:40:32.183Z,39.38
2024-04-15T14:41:34.218Z,38.62
2024-04-15T14:42:36.604Z,40.28
2024-04-15T14:43:39.048Z,39.86
2024-04-15T14:44:41.458Z,39.07
2024-04-15T14:45:43.939Z,39.38
2024-04-15T14:46:46.417Z,39.22
2024-04-15T14:47:48.984Z,39.80
2024-04-15T14:48:52.882Z,39.63
2024-04-15T14:49:56.727Z,38.75
2024-04-15T14:50:59.006Z,38.73
2024-04-15T14:52:01.449Z,38.62
2024-04-15T14:53:05.411Z,38.66
2024-04-15T14:54:09.398Z,38.79
2024-04-15T14:55:13.328Z,39.64
2024-04-15T14:56:17.235Z,38.73
2024-04-15T14:57:19.544Z,38.77
2024-04-15T14:58:21.956Z,39.59
2024-04-15T14:59:24.516Z,39.44
2024-04-15T15:00:28.477Z,39.33
2024-04-15T15:01:32.263Z,38.68
2024-04-15T15:02:34.554Z,39.26
2024-04-15T15:03:37.006Z,39.10
2024-04-15T15:04:41.006Z,38.91
2024-04-15T15:05:45.014Z,39.27
2024-04-15T15:06:49.964Z,39.03
2024-04-15T15:07:52.162Z,38.88
2024-04-15T15:08:56.195Z,38.38
2024-04-15T15:10:00.179Z,38.57
2024-04-15T15:11:03.321Z,38.81
2024-04-15T15:12:07.460Z,38.55
2024-04-15T15:13:09.700Z,38.77
2024-04-15T15:14:13.675Z,39.15
2024-04-15T15:15:17.646Z,39.19
2024-04-15T15:16:19.987Z,39.57
2024-04-15T15:17:22.472Z,38.60
2024-04-15T15:18:24.926Z,38.17
2024-04-15T15:19:27.335Z,38.39
2024-04-15T15:20:29.758Z,38.76
2024-04-15T15:21:32.221Z,38.87
2024-04-15T15:22:34.706Z,38.82
2024-04-15T15:23:37.033Z,39.16
2024-04-15T15:24:39.435Z,38.80
2024-04-15T15:25:44.004Z,38.70
2024-04-15T15:26:44.350Z,38.50
2024-04-15T15:27:49.049Z,39.00
2024-04-15T15:28:49.213Z,39.89
2024-04-15T15:29:53.237Z,39.43
2024-04-15T15:30:57.201Z,39.02
2024-04-15T15:31:59.610Z,39.23
2024-04-15T15:33:02.023Z,38.83
2024-04-15T15:34:06.209Z,38.67
2024-04-15T15:35:09.985Z,39.18
2024-04-15T15:36:13.428Z,39.37
2024-04-15T15:37:15.802Z,39.54
2024-04-15T15:38:19.751Z,39.77
2024-04-15T15:39:24.581Z,39.81
2024-04-15T15:40:26.214Z,39.97
2024-04-15T15:41:30.161Z,40.27
2024-04-15T15:42:32.327Z,40.27
2024-04-15T15:43:34.880Z,40.00
2024-04-15T15:44:37.255Z,40.68
2024-04-15T15:45:41.292Z,38.92
2024-04-15T15:46:43.614Z,39.04
2024-04-15T15:47:46.327Z,39.00
2024-04-15T15:48:48.848Z,38.50
2024-04-15T15:49:52.811Z,37.27
2024-04-15T15:50:59.077Z,37.94
2024-04-15T15:52:00.194Z,36.92
2024-04-15T15:53:02.433Z,37.76
2024-04-15T15:54:04.948Z,37.89
2024-04-15T15:55:07.322Z,39.09
2024-04-15T15:56:13.650Z,39.43
2024-04-15T15:57:15.255Z,39.80
2024-04-15T15:58:19.162Z,39.58
2024-04-15T15:59:22.931Z,40.30
2024-04-15T16:00:25.208Z,40.18
2024-04-15T16:01:30.332Z,40.85
2024-04-15T16:02:33.817Z,40.88
2024-04-15T16:03:33.634Z,41.21
2024-04-15T16:04:36.329Z,41.33
2024-04-15T16:05:38.389Z,41.38
2024-04-15T16:06:40.844Z,41.75
2024-04-15T16:07:43.291Z,41.80
2024-04-15T16:08:45.700Z,41.48
2024-04-15T16:09:49.787Z,41.66
2024-04-15T16:10:51.992Z,42.03
2024-04-15T16:11:56.175Z,42.18
2024-04-15T16:12:59.376Z,42.21
2024-04-15T16:14:03.360Z,42.25
2024-04-15T16:15:05.630Z,42.79
2024-04-15T16:16:10.637Z,42.73
2024-04-15T16:17:12.920Z,42.96
2024-04-15T16:18:15.376Z,43.21
2024-04-15T16:19:19.434Z,43.29
2024-04-15T16:20:20.206Z,43.15
2024-04-15T16:21:24.258Z,44.10
2024-04-15T16:22:28.223Z,45.17
2024-04-15T16:23:31.473Z,45.43
2024-04-15T16:24:35.375Z,45.48
2024-04-15T16:25:39.208Z,45.94
2024-04-15T16:26:41.533Z,46.08
2024-04-15T16:27:45.503Z,47.31
2024-04-15T16:28:47.834Z,48.49
2024-04-15T16:29:50.254Z,50.78
2024-04-15T16:30:54.299Z,52.89
2024-04-15T16:31:56.632Z,53.76
2024-04-15T16:32:58.992Z,54.83
2024-04-15T16:34:03.261Z,57.54
2024-04-15T16:35:05.274Z,57.80
2024-04-15T16:36:09.259Z,59.43
2024-04-15T16:37:11.656Z,59.17
2024-04-15T16:38:14.954Z,59.57
2024-04-15T16:39:17.291Z,59.86
2024-04-15T16:40:21.356Z,59.98
2024-04-15T16:41:25.165Z,60.42
2024-04-15T16:42:29.004Z,60.26
2024-04-15T16:43:32.936Z,59.76
2024-04-15T16:44:35.253Z,60.38
2024-04-15T16:45:37.522Z,59.60
2024-04-15T16:46:39.944Z,59.88
2024-04-15T16:47:44.171Z,59.30
2024-04-15T16:48:47.882Z,60.41
2024-04-15T16:49:50.210Z,60.82
2024-04-15T16:50:52.505Z,61.31
2024-04-15T16:51:54.986Z,62.42
2024-04-15T16:52:57.386Z,66.27
2024-04-15T16:53:59.851Z,68.67
2024-04-15T16:55:02.222Z,69.90
2024-04-15T16:56:04.529Z,70.26
2024-04-15T17:05:33.448Z,90.39
2024-04-15T17:06:35.818Z,92.76
2024-04-15T17:07:38.087Z,94.97
2024-04-15T17:08:40.529Z,97.09
2024-04-15T17:09:42.830Z,97.10
2024-04-15T17:10:45.200Z,98.31
2024-04-15T17:11:49.174Z,99.89
2024-04-15T17:12:51.419Z,99.61
2024-04-15T17:13:55.446Z,100.00
2024-04-15T17:14:59.316Z,100.00
2024-04-15T17:16:01.673Z,100.00
2024-04-15T17:17:07.461Z,100.00
2024-04-15T17:18:07.866Z,100.00
2024-04-15T17:19:11.884Z,100.00
2024-04-15T17:20:16.206Z,100.00
2024-04-15T17:21:16.430Z,100.00
2024-04-15T17:22:18.954Z,100.00
2024-04-15T17:23:21.182Z,100.00
2024-04-15T17:24:23.575Z,100.00
2024-04-15T17:25:27.644Z,100.00
2024-04-15T17:26:29.827Z,100.00
2024-04-15T17:27:32.179Z,100.00
2024-04-15T17:28:36.258Z,100.00
2024-04-15T17:29:40.054Z,100.00
2024-04-15T17:30:43.981Z,100.00
2024-04-15T17:31:46.228Z,100.00
2024-04-15T17:32:48.701Z,100.00
2024-04-15T17:33:51.122Z,100.00
2024-04-15T17:34:55.052Z,100.00
2024-04-15T17:35:57.309Z,100.00
2024-04-15T17:36:59.730Z,100.00
2024-04-15T17:38:02.078Z,100.00
2024-04-15T17:39:04.428Z,100.00
2024-04-15T17:40:06.893Z,100.00
2024-04-15T17:41:09.188Z,100.00
2024-04-15T17:42:11.722Z,100.00
2024-04-15T17:43:13.918Z,100.00
2024-04-15T17:44:17.818Z,100.00
2024-04-15T17:45:20.168Z,100.00
2024-04-15T17:46:22.552Z,100.00
2024-04-15T17:47:26.544Z,100.00
2024-04-15T17:48:28.879Z,100.00
2024-04-15T17:49:32.878Z,100.00
2024-04-15T17:59:02.075Z,100.00
2024-04-15T18:08:34.879Z,100.00
2024-04-15T18:09:38.315Z,100.00
2024-04-15T18:19:06.568Z,100.00
2024-04-15T18:28:39.065Z,100.00
2024-04-15T18:38:12.942Z,100.00
2024-04-15T18:47:43.372Z,100.00
2024-04-15T18:57:18.593Z,100.00
2024-04-15T19:06:50.209Z,100.00
2024-04-15T19:16:23.500Z,100.00
2024-04-15T19:25:55.906Z,100.00
2024-04-15T19:35:29.763Z,100.00
2024-04-15T19:45:06.157Z,100.00
2024-04-15T19:54:37.687Z,100.00
2024-04-15T20:04:10.297Z,100.00
2024-04-15T20:13:41.898Z,100.00
2024-04-15T20:23:14.779Z,100.00
2024-04-15T20:32:48.470Z,100.00
2024-04-15T20:42:21.130Z,100.00
2024-04-15T20:51:55.345Z,100.00
2024-04-15T21:01:28.514Z,100.00
2024-04-15T21:11:03.744Z,100.00
2024-04-15T21:20:35.394Z,100.00
2024-04-15T21:30:10.484Z,100.00
2024-04-15T21:39:42.676Z,100.00
2024-04-15T21:49:17.126Z,100.00
2024-04-15T21:58:51.236Z,100.00
2024-04-15T22:08:26.764Z,100.00
2024-04-15T22:17:58.552Z,100.00
2024-04-15T22:27:32.111Z,100.00
2024-04-15T22:37:05.626Z,100.00
2024-04-15T22:46:38.790Z,100.00
2024-04-15T22:56:12.143Z,100.00
2024-04-15T23:05:47.195Z,100.00
2024-04-15T23:15:18.693Z,100.00
2024-04-15T23:24:54.311Z,100.00
2024-04-15T23:34:26.843Z,100.00
2024-04-15T23:44:00.413Z,100.00
2024-04-15T23:53:34.359Z,100.00
